Orjiva, Spain
Current Conditions -  °F | °C
As of 11:30 AM on Saturday 22 Nov 2014 (Local Time) from LEGR Reporting Station
Few Clouds Few Clouds  
Wind Chill: 64°   Ceiling: Unl
Heat Index: 64°   Visibility: 6mi
Dew Point: 50°   Wind: 6mph
Humidity: 59%   Direction: 350°N
Pressure: 29.91"   Gusts: NA
Location:  36.9°N, 3.42°W
Report Text: LEGR 221030Z 35005KT 320V030 9999 FEW070 18/10 Q1013
Loading
Personal Weather Stations






























Interactive Weather Map New forecast layout! Learn more

10-Day Weather Forecast

Advertisements
Track Severe Weather on mobile